createdAt,value
2023-03-29T00:01:34.884Z,55.91
2023-03-29T00:04:18.257Z,56.43
2023-03-29T00:06:57.497Z,55.91
2023-03-29T00:09:37.113Z,55.92
2023-03-29T00:12:17.147Z,56.46
2023-03-29T00:14:56.533Z,56.38
2023-03-29T00:17:41.060Z,55.87
2023-03-29T00:20:20.557Z,55.20
2023-03-29T00:22:59.854Z,56.49
2023-03-29T00:25:39.097Z,56.40
2023-03-29T00:28:18.452Z,56.50
2023-03-29T00:30:58.126Z,56.80
2023-03-29T00:33:43.527Z,56.91
2023-03-29T00:36:23.385Z,57.60
2023-03-29T00:39:03.801Z,58.75
2023-03-29T00:41:43.161Z,58.63
2023-03-29T00:45:03.100Z,58.18
2023-03-29T00:47:47.835Z,58.47
2023-03-29T00:50:39.378Z,59.00
2023-03-29T00:53:25.145Z,59.51
2023-03-29T00:56:11.605Z,60.15
2023-03-29T00:58:58.553Z,60.75
2023-03-29T01:01:47.458Z,61.36
2023-03-29T01:04:33.906Z,61.44
2023-03-29T01:07:23.707Z,60.94
2023-03-29T01:10:11.236Z,60.43
2023-03-29T01:12:56.061Z,59.47
2023-03-29T01:15:36.679Z,59.88
2023-03-29T01:18:17.146Z,61.07
2023-03-29T01:21:24.644Z,61.43
2023-03-29T01:24:27.965Z,61.34
2023-03-29T01:27:16.757Z,61.85
2023-03-29T01:30:08.799Z,61.34
2023-03-29T01:32:55.019Z,61.53
2023-03-29T01:35:47.416Z,62.27
2023-03-29T01:38:33.350Z,62.51
2023-03-29T01:41:13.589Z,63.00
2023-03-29T01:44:03.103Z,62.61
2023-03-29T01:46:54.313Z,62.93
2023-03-29T01:49:41.223Z,63.05
2023-03-29T01:52:27.950Z,62.79
2023-03-29T01:55:13.465Z,62.60
2023-03-29T01:57:56.395Z,62.45
2023-03-29T02:00:38.039Z,62.03
2023-03-29T02:03:26.377Z,61.87
2023-03-29T02:06:08.664Z,61.46
2023-03-29T02:08:51.136Z,61.94
2023-03-29T02:11:33.366Z,62.40
2023-03-29T02:14:12.704Z,62.35
2023-03-29T02:16:52.130Z,63.26
2023-03-29T02:19:36.750Z,62.05
2023-03-29T02:22:17.784Z,61.21
2023-03-29T02:25:04.836Z,61.70
2023-03-29T02:27:44.281Z,62.49
2023-03-29T02:30:27.144Z,61.62
2023-03-29T02:33:15.238Z,61.25
2023-03-29T02:36:06.142Z,61.51
2023-03-29T02:38:46.368Z,62.19
2023-03-29T02:41:25.849Z,62.28
2023-03-29T02:44:09.575Z,62.72
2023-03-29T02:46:50.116Z,61.72
2023-03-29T02:49:30.838Z,63.15
2023-03-29T02:52:22.218Z,62.79
2023-03-29T02:55:04.312Z,62.44
2023-03-29T02:57:44.718Z,62.38
2023-03-29T03:00:26.087Z,62.51
2023-03-29T03:03:05.626Z,62.44
2023-03-29T03:05:46.155Z,62.53
2023-03-29T03:08:31.070Z,63.17
2023-03-29T03:11:10.539Z,62.68
2023-03-29T03:13:49.914Z,62.76
2023-03-29T03:16:29.620Z,62.85
2023-03-29T03:19:09.185Z,62.93
2023-03-29T03:21:48.742Z,63.02
2023-03-29T03:24:34.138Z,63.10
2023-03-29T03:27:13.745Z,62.73
2023-03-29T03:29:53.062Z,62.85
2023-03-29T03:32:32.984Z,62.76
2023-03-29T03:35:14.024Z,63.04
2023-03-29T03:37:53.346Z,63.15
2023-03-29T03:40:37.809Z,63.14
2023-03-29T03:43:17.316Z,63.01
2023-03-29T03:45:56.866Z,63.18
2023-03-29T03:48:36.243Z,62.57
2023-03-29T03:51:15.725Z,63.12
2023-03-29T03:53:55.101Z,62.79
2023-03-29T03:56:39.507Z,63.15
2023-03-29T03:59:19.047Z,63.01
2023-03-29T04:01:59.493Z,62.86
2023-03-29T04:04:39.035Z,62.88
2023-03-29T04:07:19.104Z,63.23
2023-03-29T04:09:58.438Z,62.78
2023-03-29T04:12:42.878Z,63.09
2023-03-29T04:15:22.922Z,62.89
2023-03-29T04:18:03.708Z,62.67
2023-03-29T04:20:43.300Z,63.29
2023-03-29T04:23:23.222Z,63.06
2023-03-29T04:26:02.791Z,62.81
2023-03-29T04:28:47.778Z,62.66
2023-03-29T04:31:27.420Z,62.96
2023-03-29T04:34:07.027Z,62.93
2023-03-29T04:36:46.451Z,63.11
2023-03-29T04:39:35.128Z,63.41
2023-03-29T04:42:15.290Z,63.90
2023-03-29T04:44:59.797Z,63.85
2023-03-29T04:47:41.116Z,63.95
2023-03-29T04:50:21.343Z,63.74
2023-03-29T04:53:01.564Z,64.02
2023-03-29T04:55:40.986Z,63.98
2023-03-29T04:58:22.978Z,63.98
2023-03-29T05:01:08.871Z,63.68
2023-03-29T05:03:48.254Z,64.02
2023-03-29T05:06:27.629Z,63.57
2023-03-29T05:09:08.343Z,63.26
2023-03-29T05:11:47.697Z,63.10
2023-03-29T05:14:27.095Z,63.65
2023-03-29T05:17:11.555Z,63.69
2023-03-29T05:19:50.917Z,63.97
2023-03-29T05:22:31.001Z,64.31
2023-03-29T05:25:10.411Z,64.23
2023-03-29T05:27:49.791Z,64.64
2023-03-29T05:30:29.333Z,64.86
2023-03-29T05:33:14.844Z,65.14
2023-03-29T05:35:54.240Z,65.48
2023-03-29T05:38:34.022Z,65.70
2023-03-29T05:41:14.224Z,65.62
2023-03-29T05:43:53.538Z,65.47
2023-03-29T05:46:33.006Z,65.34
2023-03-29T05:49:17.710Z,65.81
2023-03-29T05:51:58.114Z,65.51
2023-03-29T05:54:37.593Z,66.23
2023-03-29T05:57:17.028Z,66.34
2023-03-29T05:59:57.549Z,66.40
2023-03-29T06:02:38.006Z,65.94
2023-03-29T06:05:22.604Z,65.84
2023-03-29T06:08:02.010Z,65.72
2023-03-29T06:10:41.423Z,65.69
2023-03-29T06:13:20.777Z,65.79
2023-03-29T06:16:00.765Z,65.60
2023-03-29T06:18:41.390Z,65.59
2023-03-29T06:21:27.807Z,65.30
2023-03-29T06:24:08.028Z,65.12
2023-03-29T06:26:47.686Z,64.73
2023-03-29T06:29:27.179Z,64.42
2023-03-29T06:32:06.652Z,64.07
2023-03-29T06:34:45.999Z,64.41
2023-03-29T06:37:30.532Z,63.94
2023-03-29T06:40:11.312Z,64.39
2023-03-29T06:42:52.196Z,63.65
2023-03-29T06:45:31.996Z,63.92
2023-03-29T06:48:13.499Z,64.46
2023-03-29T06:50:53.505Z,63.87
2023-03-29T06:53:37.968Z,63.51
2023-03-29T06:56:18.831Z,63.18
2023-03-29T06:58:58.221Z,63.30
2023-03-29T07:01:38.616Z,63.00
2023-03-29T07:04:18.822Z,62.83
2023-03-29T07:07:02.619Z,62.77
2023-03-29T07:09:47.714Z,62.17
2023-03-29T07:12:28.354Z,62.20
2023-03-29T07:15:07.910Z,62.44
2023-03-29T07:17:47.324Z,61.94
2023-03-29T07:20:28.336Z,60.97
2023-03-29T07:23:09.256Z,59.67
2023-03-29T07:25:53.802Z,60.15
2023-03-29T07:28:33.237Z,60.24
2023-03-29T07:31:16.973Z,60.69
2023-03-29T07:33:57.285Z,60.76
2023-03-29T07:36:38.186Z,60.88
2023-03-29T07:39:18.918Z,60.23
2023-03-29T07:42:04.770Z,59.50
2023-03-29T07:44:44.073Z,59.24
2023-03-29T07:47:23.497Z,59.49
2023-03-29T07:50:02.817Z,59.18
2023-03-29T07:52:44.749Z,59.34
2023-03-29T07:55:24.176Z,59.04
2023-03-29T07:58:08.705Z,60.02
2023-03-29T08:00:50.345Z,59.35
2023-03-29T08:03:30.060Z,59.69
2023-03-29T08:06:09.919Z,60.07
2023-03-29T08:08:49.356Z,59.45
2023-03-29T08:11:28.756Z,58.94
2023-03-29T08:14:15.903Z,59.31
2023-03-29T08:16:55.280Z,59.91
2023-03-29T08:19:35.081Z,59.56
2023-03-29T08:22:14.514Z,58.00
2023-03-29T08:24:54.259Z,57.31
2023-03-29T08:27:33.722Z,57.63
2023-03-29T08:30:19.394Z,57.62
2023-03-29T08:32:59.278Z,57.68
2023-03-29T08:35:38.876Z,56.22
2023-03-29T08:38:18.870Z,57.00
2023-03-29T08:40:58.309Z,56.66
2023-03-29T08:43:58.130Z,56.36
2023-03-29T08:46:54.333Z,55.99
2023-03-29T08:49:35.270Z,56.09
2023-03-29T08:52:28.422Z,54.50
2023-03-29T08:55:13.486Z,54.01
2023-03-29T08:57:57.750Z,54.00
2023-03-29T09:00:46.513Z,55.20
2023-03-29T09:03:36.894Z,53.46
2023-03-29T09:06:20.055Z,52.75
2023-03-29T09:09:01.140Z,52.45
2023-03-29T09:11:58.403Z,52.38
2023-03-29T09:14:56.049Z,51.94
2023-03-29T09:17:50.240Z,52.42
2023-03-29T09:20:44.823Z,51.44
2023-03-29T09:23:41.995Z,50.54
2023-03-29T09:26:32.869Z,49.59
2023-03-29T09:29:30.166Z,48.55
2023-03-29T09:32:15.656Z,48.00
2023-03-29T09:35:06.118Z,47.92
2023-03-29T09:37:50.503Z,46.45
2023-03-29T09:40:34.751Z,46.16
2023-03-29T09:43:20.170Z,47.02
2023-03-29T09:46:06.063Z,45.56
2023-03-29T09:48:50.922Z,44.73
2023-03-29T09:51:35.224Z,45.25
2023-03-29T09:54:19.959Z,44.97
2023-03-29T09:56:59.542Z,44.22
2023-03-29T09:59:39.266Z,44.73
2023-03-29T10:02:21.363Z,43.77
2023-03-29T10:05:05.155Z,44.02
2023-03-29T10:07:49.568Z,43.45
2023-03-29T10:10:38.025Z,43.37
2023-03-29T10:13:24.929Z,42.94
2023-03-29T10:16:08.866Z,42.84
2023-03-29T10:18:51.442Z,42.40
2023-03-29T10:21:30.853Z,42.58
2023-03-29T10:24:10.220Z,42.52
2023-03-29T10:26:56.837Z,42.41
2023-03-29T10:29:44.570Z,41.76
2023-03-29T10:32:31.953Z,41.76
2023-03-29T10:35:17.605Z,42.57
2023-03-29T10:37:59.584Z,42.27
2023-03-29T10:40:41.367Z,41.73
2023-03-29T10:43:30.810Z,40.75
2023-03-29T10:46:15.645Z,40.99
2023-03-29T10:48:56.857Z,40.48
2023-03-29T10:51:36.868Z,39.92
2023-03-29T10:54:23.216Z,39.63
2023-03-29T10:57:05.501Z,39.80
2023-03-29T11:00:00.138Z,39.68
2023-03-29T11:03:02.382Z,39.77
2023-03-29T11:05:51.566Z,39.99
2023-03-29T11:08:56.202Z,39.37
2023-03-29T11:12:16.437Z,40.52
2023-03-29T11:15:19.148Z,40.29
2023-03-29T11:18:13.222Z,39.82
2023-03-29T11:21:03.481Z,39.65
2023-03-29T11:23:57.149Z,40.31
2023-03-29T11:26:49.743Z,40.68
2023-03-29T11:29:37.980Z,40.77
2023-03-29T11:32:30.954Z,41.46
2023-03-29T11:35:28.413Z,41.26
2023-03-29T11:38:19.289Z,41.37
2023-03-29T11:41:06.684Z,41.86
2023-03-29T11:43:54.895Z,41.98
2023-03-29T11:46:40.334Z,42.03
2023-03-29T11:49:30.583Z,43.06
2023-03-29T11:52:20.532Z,43.18
2023-03-29T11:55:05.994Z,43.38
2023-03-29T11:57:50.809Z,43.52
2023-03-29T12:00:37.707Z,43.11
2023-03-29T12:03:24.671Z,43.59
2023-03-29T12:06:15.275Z,43.16
2023-03-29T12:09:03.457Z,43.54
2023-03-29T12:11:51.332Z,43.65
2023-03-29T12:14:36.536Z,43.28
2023-03-29T12:17:22.546Z,43.17
2023-03-29T12:20:12.208Z,43.86
2023-03-29T12:22:57.989Z,42.86
2023-03-29T12:25:48.906Z,43.36
2023-03-29T12:28:50.527Z,43.14
2023-03-29T12:31:41.270Z,43.84
2023-03-29T12:34:43.067Z,43.99
2023-03-29T12:37:39.948Z,44.83
2023-03-29T12:40:28.747Z,44.82
2023-03-29T12:43:14.325Z,45.69
2023-03-29T12:45:55.100Z,45.10
2023-03-29T12:48:38.412Z,45.00
2023-03-29T12:51:22.888Z,45.70
2023-03-29T12:54:13.994Z,45.45
2023-03-29T12:57:09.202Z,45.64
2023-03-29T12:59:53.587Z,45.78
2023-03-29T13:02:43.348Z,45.68
2023-03-29T13:05:40.527Z,45.86
2023-03-29T13:08:33.802Z,45.34
2023-03-29T13:11:18.792Z,45.42
2023-03-29T13:14:04.387Z,44.60
2023-03-29T13:16:43.908Z,44.04
2023-03-29T13:19:41.886Z,43.32
2023-03-29T13:22:33.976Z,41.27
2023-03-29T13:25:28.554Z,41.00
2023-03-29T13:28:18.797Z,41.06
2023-03-29T13:31:09.346Z,41.07
2023-03-29T13:34:09.238Z,38.67
2023-03-29T13:37:02.719Z,37.86
2023-03-29T13:39:44.083Z,37.92
2023-03-29T13:42:31.357Z,39.67
2023-03-29T13:45:22.786Z,39.32
2023-03-29T13:48:32.932Z,38.81
2023-03-29T13:51:35.179Z,39.41
2023-03-29T13:54:27.876Z,38.48
2023-03-29T13:57:16.244Z,37.56
2023-03-29T14:00:08.352Z,35.95
2023-03-29T14:02:53.045Z,34.62
2023-03-29T14:05:41.501Z,32.35
2023-03-29T14:08:28.127Z,32.22
2023-03-29T14:11:11.784Z,31.61
2023-03-29T14:13:51.252Z,32.09
2023-03-29T14:16:34.700Z,34.44
2023-03-29T14:19:22.770Z,34.70
2023-03-29T14:22:08.734Z,34.58
2023-03-29T14:24:54.758Z,33.20
2023-03-29T14:27:38.455Z,33.56
2023-03-29T14:30:34.072Z,33.52
2023-03-29T14:33:13.645Z,33.64
2023-03-29T14:35:53.247Z,34.17
2023-03-29T14:38:39.845Z,34.81
2023-03-29T14:41:19.974Z,35.00
2023-03-29T14:44:00.643Z,36.10
2023-03-29T14:46:41.613Z,36.66
2023-03-29T14:49:24.621Z,36.70
2023-03-29T14:52:05.245Z,36.29
2023-03-29T14:54:54.448Z,35.05
2023-03-29T14:57:40.663Z,35.43
2023-03-29T15:00:36.229Z,35.92
2023-03-29T15:03:25.683Z,36.00
2023-03-29T15:06:09.342Z,36.32
2023-03-29T15:09:03.758Z,37.57
2023-03-29T15:11:59.929Z,37.30
2023-03-29T15:14:43.267Z,36.81
2023-03-29T15:17:51.090Z,36.93
2023-03-29T15:20:35.514Z,36.67
2023-03-29T15:23:30.103Z,36.98
2023-03-29T15:26:16.293Z,36.89
2023-03-29T15:29:09.293Z,37.14
2023-03-29T15:31:49.457Z,37.39
2023-03-29T15:34:34.154Z,38.33
2023-03-29T15:37:13.861Z,38.83
2023-03-29T15:39:53.308Z,39.10
2023-03-29T15:42:33.520Z,39.01
2023-03-29T15:45:23.401Z,38.99
2023-03-29T15:48:05.917Z,39.57
2023-03-29T15:50:45.302Z,39.07
2023-03-29T15:53:25.258Z,38.61
2023-03-29T15:56:08.458Z,38.99
2023-03-29T15:58:47.923Z,38.76
2023-03-29T16:01:40.241Z,38.86
2023-03-29T16:04:22.362Z,39.84
2023-03-29T16:07:02.593Z,40.24
2023-03-29T16:09:42.112Z,40.27
2023-03-29T16:12:21.766Z,40.11
2023-03-29T16:15:01.115Z,40.00
2023-03-29T16:17:45.608Z,40.23
2023-03-29T16:20:25.764Z,40.77
2023-03-29T16:23:09.956Z,41.47
2023-03-29T16:25:49.430Z,41.38
2023-03-29T16:28:29.430Z,42.57
2023-03-29T16:31:08.840Z,43.29
2023-03-29T16:33:53.708Z,43.56
2023-03-29T16:36:34.328Z,43.55
2023-03-29T16:39:14.346Z,42.33
2023-03-29T16:41:53.780Z,42.56
2023-03-29T16:44:33.094Z,43.50
2023-03-29T16:47:13.314Z,44.00
2023-03-29T16:49:57.713Z,44.67
2023-03-29T16:52:39.087Z,44.90
2023-03-29T16:55:20.428Z,44.67
2023-03-29T16:57:59.921Z,44.49
2023-03-29T17:00:39.590Z,44.50
2023-03-29T17:03:19.328Z,44.62
2023-03-29T17:06:04.017Z,44.38
2023-03-29T17:08:44.701Z,44.75
2023-03-29T17:11:24.357Z,44.90
2023-03-29T17:14:04.474Z,45.42
2023-03-29T17:16:43.879Z,45.80
2023-03-29T17:19:23.267Z,45.98
2023-03-29T17:22:07.711Z,46.34
2023-03-29T17:24:47.124Z,46.74
2023-03-29T17:27:26.669Z,46.72
2023-03-29T17:30:06.054Z,47.33
2023-03-29T17:32:46.792Z,47.53
2023-03-29T17:35:26.164Z,47.72
2023-03-29T17:38:10.601Z,47.47
2023-03-29T17:40:50.097Z,48.04
2023-03-29T17:43:30.255Z,48.33
2023-03-29T17:46:09.659Z,48.63
2023-03-29T17:48:48.959Z,48.68
2023-03-29T17:51:28.447Z,48.41
2023-03-29T17:54:13.347Z,48.59
2023-03-29T17:56:52.781Z,48.94
2023-03-29T17:59:32.388Z,49.15
2023-03-29T18:02:11.801Z,49.23
2023-03-29T18:04:51.168Z,49.46
2023-03-29T18:07:30.509Z,49.56
2023-03-29T18:10:15.677Z,49.69
2023-03-29T18:12:55.026Z,50.00
2023-03-29T18:15:34.374Z,50.12
2023-03-29T18:18:13.835Z,50.49
2023-03-29T18:20:53.145Z,50.61
2023-03-29T18:23:34.390Z,50.64
2023-03-29T18:26:18.842Z,50.61
2023-03-29T18:28:58.182Z,51.75
2023-03-29T18:31:37.614Z,52.21
2023-03-29T18:34:17.225Z,51.14
2023-03-29T18:36:57.061Z,51.02
2023-03-29T18:39:36.978Z,51.16
2023-03-29T18:42:23.030Z,52.35
2023-03-29T18:45:02.422Z,53.05
2023-03-29T18:47:42.221Z,53.64
2023-03-29T18:50:21.649Z,53.86
2023-03-29T18:53:01.061Z,54.21
2023-03-29T18:55:40.731Z,54.64
2023-03-29T18:58:25.283Z,54.58
2023-03-29T19:01:08.980Z,54.42
2023-03-29T19:03:49.289Z,54.72
2023-03-29T19:06:29.147Z,54.21
2023-03-29T19:09:09.024Z,54.65
2023-03-29T19:11:49.083Z,54.53
2023-03-29T19:14:33.468Z,55.27
2023-03-29T19:17:12.762Z,55.77
2023-03-29T19:19:52.061Z,56.26
2023-03-29T19:22:31.849Z,56.56
2023-03-29T19:25:12.436Z,56.66
2023-03-29T19:27:51.968Z,56.60
2023-03-29T19:30:37.237Z,55.60
2023-03-29T19:33:16.963Z,55.73
2023-03-29T19:35:58.108Z,54.64
2023-03-29T19:38:37.516Z,54.80
2023-03-29T19:41:17.327Z,55.96
2023-03-29T19:43:56.652Z,56.50
2023-03-29T19:46:42.834Z,57.17
2023-03-29T19:49:22.161Z,56.65
2023-03-29T19:52:02.531Z,56.53
2023-03-29T19:54:41.848Z,56.95
2023-03-29T19:57:21.257Z,57.02
2023-03-29T20:00:00.622Z,56.53
2023-03-29T20:02:45.278Z,57.06
2023-03-29T20:05:25.243Z,57.45
2023-03-29T20:08:04.701Z,57.39
2023-03-29T20:10:44.357Z,57.40
2023-03-29T20:13:37.497Z,57.33
2023-03-29T20:16:20.934Z,57.26
2023-03-29T20:19:05.384Z,57.40
2023-03-29T20:21:44.753Z,57.35
2023-03-29T20:24:24.775Z,57.36
2023-03-29T20:27:05.722Z,57.53
2023-03-29T20:29:45.095Z,57.61
2023-03-29T20:32:24.475Z,57.72
2023-03-29T20:35:08.904Z,57.94
2023-03-29T20:37:48.556Z,57.88
2023-03-29T20:40:29.973Z,58.00
2023-03-29T20:43:14.276Z,58.15
2023-03-29T20:45:54.834Z,58.29
2023-03-29T20:48:39.431Z,58.22
2023-03-29T20:51:23.844Z,57.87
2023-03-29T20:54:05.727Z,58.11
2023-03-29T20:56:46.799Z,58.29
2023-03-29T20:59:26.182Z,58.07
2023-03-29T21:02:06.302Z,58.51
2023-03-29T21:04:46.000Z,58.69
2023-03-29T21:07:31.420Z,58.31
2023-03-29T21:10:12.606Z,58.59
2023-03-29T21:12:51.921Z,59.04
2023-03-29T21:15:31.956Z,59.32
2023-03-29T21:18:11.513Z,58.89
2023-03-29T21:20:51.912Z,59.22
2023-03-29T21:23:36.313Z,59.31
2023-03-29T21:29:00.158Z,59.62
2023-03-29T21:31:39.454Z,59.93
2023-03-29T21:34:18.811Z,59.87
2023-03-29T21:36:58.166Z,60.26
2023-03-29T21:39:42.616Z,60.47
2023-03-29T21:42:21.922Z,60.53
2023-03-29T21:45:01.293Z,60.59
2023-03-29T21:47:40.667Z,60.60
2023-03-29T21:50:20.073Z,60.92
2023-03-29T21:52:59.405Z,61.36
2023-03-29T21:55:45.508Z,61.47
2023-03-29T21:58:25.298Z,61.47
2023-03-29T22:01:06.355Z,61.88
2023-03-29T22:03:46.012Z,62.17
2023-03-29T22:06:25.317Z,62.16
2023-03-29T22:09:04.766Z,62.24
2023-03-29T22:11:49.812Z,62.18
2023-03-29T22:14:29.691Z,62.62
2023-03-29T22:17:09.146Z,62.41
2023-03-29T22:19:48.697Z,62.54
2023-03-29T22:22:28.009Z,62.81
2023-03-29T22:25:07.824Z,62.96
2023-03-29T22:27:53.503Z,63.05
2023-03-29T22:30:32.937Z,63.28
2023-03-29T22:33:12.481Z,63.33
2023-03-29T22:35:51.947Z,63.26
2023-03-29T22:38:31.315Z,63.45
2023-03-29T22:41:12.356Z,63.64
2023-03-29T22:43:58.625Z,63.67
2023-03-29T22:46:38.370Z,63.76
2023-03-29T22:49:17.853Z,64.00
2023-03-29T22:51:57.307Z,64.24
2023-03-29T22:54:36.794Z,64.27
2023-03-29T22:57:16.208Z,64.00
2023-03-29T23:00:00.622Z,64.36
2023-03-29T23:02:39.973Z,64.52
2023-03-29T23:05:19.806Z,64.58
2023-03-29T23:07:59.184Z,64.65
2023-03-29T23:10:38.477Z,64.23
2023-03-29T23:13:21.805Z,63.88
2023-03-29T23:16:08.154Z,64.30
2023-03-29T23:18:47.785Z,64.54
2023-03-29T23:21:27.465Z,64.51
2023-03-29T23:24:07.774Z,64.63
2023-03-29T23:26:47.068Z,64.91
2023-03-29T23:29:27.477Z,64.89
2023-03-29T23:32:11.879Z,64.82
2023-03-29T23:34:51.347Z,64.97
2023-03-29T23:37:30.668Z,64.99
2023-03-29T23:40:11.219Z,65.12
2023-03-29T23:42:52.791Z,65.40
2023-03-29T23:45:34.448Z,65.31
2023-03-29T23:48:21.360Z,65.57
2023-03-29T23:51:01.078Z,65.57
2023-03-29T23:53:40.617Z,65.61
2023-03-29T23:56:19.960Z,65.78
2023-03-29T23:58:59.485Z,65.98
